createdAt,value
2019-03-27T00:02:10.045Z,11.10
2019-03-27T00:04:37.783Z,11.00
2019-03-27T00:07:05.556Z,11.30
2019-03-27T00:09:33.304Z,8.40
2019-03-27T00:12:01.048Z,9.93
2019-03-27T00:14:28.885Z,12.33
2019-03-27T00:16:56.650Z,13.10
2019-03-27T00:19:24.380Z,12.50
2019-03-27T00:21:52.116Z,17.27
2019-03-27T00:24:19.864Z,12.50
2019-03-27T00:26:47.612Z,13.70
2019-03-27T00:29:15.349Z,10.10
2019-03-27T00:31:43.097Z,13.10
2019-03-27T00:34:10.842Z,12.07
2019-03-27T00:36:38.574Z,10.60
2019-03-27T00:39:06.724Z,12.87
2019-03-27T00:41:34.481Z,12.30
2019-03-27T00:44:02.236Z,12.70
2019-03-27T00:46:30.011Z,12.80
2019-03-27T00:48:57.841Z,9.23
2019-03-27T00:51:25.648Z,9.77
2019-03-27T00:53:53.400Z,8.27
2019-03-27T00:56:21.156Z,13.27
2019-03-27T00:58:48.948Z,10.60
2019-03-27T01:01:16.699Z,12.37
2019-03-27T01:03:44.456Z,10.17
2019-03-27T01:06:12.426Z,11.87
2019-03-27T01:08:40.361Z,10.03
2019-03-27T01:11:08.103Z,11.20
2019-03-27T01:13:35.832Z,11.50
2019-03-27T01:16:03.705Z,12.80
2019-03-27T01:18:31.605Z,11.17
2019-03-27T01:20:59.441Z,15.40
2019-03-27T01:23:27.180Z,9.77
2019-03-27T01:25:54.924Z,14.70
2019-03-27T01:28:22.673Z,11.30
2019-03-27T01:30:50.407Z,12.40
2019-03-27T01:33:18.128Z,12.73
2019-03-27T01:35:45.861Z,21.13
2019-03-27T01:38:13.613Z,14.80
2019-03-27T01:40:41.701Z,21.13
2019-03-27T01:43:09.512Z,21.20
2019-03-27T01:45:37.280Z,15.67
2019-03-27T01:48:05.018Z,11.10
2019-03-27T01:50:32.868Z,11.50
2019-03-27T01:53:00.508Z,16.00
2019-03-27T01:55:28.260Z,13.83
2019-03-27T01:57:56.092Z,20.93
2019-03-27T02:00:23.884Z,16.20
2019-03-27T02:02:51.681Z,17.83
2019-03-27T02:05:19.506Z,14.53
2019-03-27T02:07:48.161Z,12.03
2019-03-27T02:10:16.130Z,11.60
2019-03-27T02:12:43.892Z,15.23
2019-03-27T02:15:11.746Z,8.27
2019-03-27T02:17:39.502Z,12.30
2019-03-27T02:20:07.452Z,12.17
2019-03-27T02:22:35.196Z,10.57
2019-03-27T02:25:03.344Z,14.80
2019-03-27T02:27:31.120Z,10.23
2019-03-27T02:29:58.884Z,9.07
2019-03-27T02:32:26.553Z,11.80
2019-03-27T02:34:54.288Z,11.57
2019-03-27T02:37:22.036Z,13.73
2019-03-27T02:39:49.788Z,12.40
2019-03-27T02:42:17.548Z,11.00
2019-03-27T02:44:45.328Z,10.33
2019-03-27T02:47:13.082Z,14.07
2019-03-27T02:49:40.909Z,11.97
2019-03-27T02:52:08.665Z,11.20
2019-03-27T02:54:36.508Z,10.73
2019-03-27T02:57:04.259Z,9.10
2019-03-27T02:59:32.037Z,8.87
2019-03-27T03:01:59.797Z,12.50
2019-03-27T03:04:27.566Z,11.97
2019-03-27T03:06:55.305Z,10.50
2019-03-27T03:09:23.055Z,12.80
2019-03-27T03:11:50.888Z,7.90
2019-03-27T03:14:18.641Z,8.77
2019-03-27T03:16:46.449Z,12.97
2019-03-27T03:19:14.190Z,13.90
2019-03-27T03:21:41.941Z,10.43
2019-03-27T03:24:09.703Z,9.17
2019-03-27T03:26:37.463Z,8.57
2019-03-27T03:29:05.329Z,10.00
2019-03-27T03:31:33.182Z,8.73
2019-03-27T03:34:00.999Z,9.30
2019-03-27T03:36:28.969Z,8.07
2019-03-27T03:38:56.766Z,8.10
2019-03-27T03:41:24.496Z,7.47
2019-03-27T03:43:52.284Z,9.07
2019-03-27T03:46:20.024Z,9.80
2019-03-27T03:48:47.787Z,7.37
2019-03-27T03:51:16.019Z,6.97
2019-03-27T03:53:44.399Z,9.00
2019-03-27T03:56:14.067Z,9.80
2019-03-27T03:58:42.823Z,9.10
2019-03-27T04:01:11.169Z,9.10
2019-03-27T04:03:41.371Z,9.73
2019-03-27T04:06:09.112Z,5.80
2019-03-27T04:08:39.109Z,8.23
2019-03-27T04:11:06.828Z,13.27
2019-03-27T04:13:34.597Z,9.37
2019-03-27T04:16:02.669Z,9.53
2019-03-27T04:18:30.465Z,10.23
2019-03-27T04:20:58.352Z,9.70
2019-03-27T04:23:26.218Z,8.97
2019-03-27T04:26:09.048Z,10.63
2019-03-27T04:28:23.617Z,9.10
2019-03-27T04:30:51.487Z,9.97
2019-03-27T04:33:19.242Z,7.33
2019-03-27T04:35:46.992Z,9.00
2019-03-27T04:38:14.741Z,8.10
2019-03-27T04:40:42.485Z,8.17
2019-03-27T04:43:10.254Z,13.57
2019-03-27T04:45:38.008Z,8.70
2019-03-27T04:48:05.759Z,8.83
2019-03-27T04:50:33.568Z,10.63
2019-03-27T04:53:01.317Z,11.53
2019-03-27T04:55:29.045Z,26.30
2019-03-27T04:57:56.800Z,9.00
2019-03-27T05:00:24.571Z,8.93
2019-03-27T05:02:52.321Z,11.63
2019-03-27T05:05:20.181Z,7.40
2019-03-27T05:07:47.929Z,7.60
2019-03-27T05:10:15.678Z,7.57
2019-03-27T05:12:43.554Z,11.10
2019-03-27T05:15:11.401Z,10.27
2019-03-27T05:17:45.938Z,8.00
2019-03-27T05:20:08.933Z,8.50
2019-03-27T05:22:36.692Z,9.90
2019-03-27T05:25:05.416Z,22.77
2019-03-27T05:27:36.162Z,10.50
2019-03-27T05:30:03.460Z,10.40
2019-03-27T05:32:31.239Z,11.20
2019-03-27T05:34:58.989Z,9.67
2019-03-27T05:37:26.767Z,9.67
2019-03-27T05:39:54.547Z,9.43
2019-03-27T05:42:22.358Z,11.67
2019-03-27T05:44:50.135Z,9.70
2019-03-27T05:47:17.992Z,9.70
2019-03-27T05:49:45.752Z,11.97
2019-03-27T05:52:13.644Z,11.93
2019-03-27T05:54:41.389Z,12.67
2019-03-27T05:57:09.151Z,10.93
2019-03-27T05:59:37.232Z,15.33
2019-03-27T06:02:04.988Z,10.30
2019-03-27T06:04:32.832Z,14.80
2019-03-27T06:07:00.581Z,12.07
2019-03-27T06:09:28.329Z,12.33
2019-03-27T06:11:56.077Z,13.80
2019-03-27T06:14:23.821Z,12.83
2019-03-27T06:16:51.578Z,15.50
2019-03-27T06:19:19.342Z,14.03
2019-03-27T06:21:47.106Z,13.33
2019-03-27T06:24:14.840Z,10.70
2019-03-27T06:26:42.606Z,8.60
2019-03-27T06:29:10.265Z,9.70
2019-03-27T06:31:38.018Z,16.30
2019-03-27T06:34:05.786Z,9.57
2019-03-27T06:36:33.536Z,8.97
2019-03-27T06:39:01.280Z,12.07
2019-03-27T06:41:29.024Z,13.13
2019-03-27T06:43:56.788Z,14.30
2019-03-27T06:46:24.528Z,12.23
2019-03-27T06:48:52.292Z,14.07
2019-03-27T06:51:20.040Z,13.13
2019-03-27T06:53:47.821Z,12.67
2019-03-27T06:56:15.568Z,14.20
2019-03-27T06:58:53.950Z,15.30
2019-03-27T07:01:12.945Z,10.67
2019-03-27T07:03:40.688Z,17.10
2019-03-27T07:06:08.438Z,17.60
2019-03-27T07:08:36.176Z,16.17
2019-03-27T07:11:03.925Z,16.30
2019-03-27T07:13:31.688Z,13.87
2019-03-27T07:15:59.417Z,14.73
2019-03-27T07:18:39.436Z,15.90
2019-03-27T07:20:56.864Z,16.63
2019-03-27T07:23:25.456Z,23.00
2019-03-27T07:25:53.212Z,15.00
2019-03-27T07:28:21.095Z,20.30
2019-03-27T07:30:48.824Z,16.20
2019-03-27T07:33:16.574Z,12.67
2019-03-27T07:35:44.325Z,17.27
2019-03-27T07:38:12.061Z,12.87
2019-03-27T07:40:39.788Z,15.63
2019-03-27T07:43:07.525Z,14.17
2019-03-27T07:45:35.261Z,15.03
2019-03-27T07:48:03.017Z,14.00
2019-03-27T07:50:30.752Z,15.90
2019-03-27T07:52:58.492Z,19.30
2019-03-27T07:55:26.218Z,12.70
2019-03-27T07:57:53.999Z,17.30
2019-03-27T08:00:22.231Z,12.60
2019-03-27T08:02:49.980Z,14.80
2019-03-27T08:05:17.726Z,14.00
2019-03-27T08:07:45.452Z,12.30
2019-03-27T08:10:13.303Z,13.50
2019-03-27T08:12:41.149Z,15.23
2019-03-27T08:15:09.533Z,14.40
2019-03-27T08:17:37.275Z,11.47
2019-03-27T08:20:06.315Z,11.70
2019-03-27T08:22:34.066Z,15.30
2019-03-27T08:25:01.989Z,12.07
2019-03-27T08:27:29.744Z,15.10
2019-03-27T08:29:57.480Z,13.57
2019-03-27T08:32:25.230Z,12.03
2019-03-27T08:34:52.984Z,15.87
2019-03-27T08:37:21.939Z,9.97
2019-03-27T08:39:49.700Z,13.60
2019-03-27T08:42:17.436Z,13.63
2019-03-27T08:44:45.172Z,17.33
2019-03-27T08:47:12.911Z,10.60
2019-03-27T08:49:40.660Z,8.73
2019-03-27T08:52:08.415Z,13.43
2019-03-27T08:54:36.168Z,10.97
2019-03-27T08:57:03.972Z,9.63
2019-03-27T08:59:50.941Z,15.90
2019-03-27T09:02:18.687Z,13.27
2019-03-27T09:04:46.414Z,10.23
2019-03-27T09:07:14.173Z,13.23
2019-03-27T09:09:41.924Z,14.13
2019-03-27T09:12:09.785Z,14.10
2019-03-27T09:14:37.561Z,14.60
2019-03-27T09:17:05.424Z,15.40
2019-03-27T09:19:35.920Z,18.57
2019-03-27T09:22:03.238Z,13.70
2019-03-27T09:24:31.017Z,13.03
2019-03-27T09:26:58.783Z,20.37
2019-03-27T09:29:26.543Z,17.77
2019-03-27T09:31:54.297Z,17.10
2019-03-27T09:34:22.117Z,19.23
2019-03-27T09:36:49.851Z,16.23
2019-03-27T09:39:17.674Z,15.07
2019-03-27T09:41:45.689Z,19.30
2019-03-27T09:44:13.419Z,13.97
2019-03-27T09:46:41.247Z,14.13
2019-03-27T09:49:09.105Z,13.40
2019-03-27T09:51:36.842Z,15.43
2019-03-27T09:54:04.589Z,14.73
2019-03-27T09:56:32.416Z,19.23
2019-03-27T09:59:00.165Z,13.97
2019-03-27T10:01:27.909Z,16.23
2019-03-27T10:03:55.639Z,20.23
2019-03-27T10:06:23.364Z,17.53
2019-03-27T10:08:51.256Z,12.80
2019-03-27T10:11:19.004Z,13.77
2019-03-27T10:13:46.848Z,13.13
2019-03-27T10:16:14.600Z,15.40
2019-03-27T10:18:42.458Z,13.83
2019-03-27T10:21:10.205Z,12.67
2019-03-27T10:23:37.953Z,11.90
2019-03-27T10:26:05.962Z,12.33
2019-03-27T10:28:33.853Z,13.80
2019-03-27T10:31:01.609Z,11.67
2019-03-27T10:33:29.361Z,11.90
2019-03-27T10:35:57.217Z,10.73
2019-03-27T10:38:24.980Z,16.73
2019-03-27T10:40:52.749Z,12.03
2019-03-27T10:43:20.579Z,15.70
2019-03-27T10:45:48.378Z,12.53
2019-03-27T10:48:16.109Z,15.70
2019-03-27T10:50:44.017Z,14.80
2019-03-27T10:53:11.751Z,20.10
2019-03-27T10:55:39.501Z,15.63
2019-03-27T10:58:07.323Z,15.73
2019-03-27T11:00:35.119Z,22.30
2019-03-27T11:03:02.869Z,15.90
2019-03-27T11:05:30.752Z,13.37
2019-03-27T11:07:58.585Z,11.10
2019-03-27T11:10:26.383Z,13.33
2019-03-27T11:12:54.128Z,11.93
2019-03-27T11:15:22.080Z,9.97
2019-03-27T11:17:49.916Z,8.63
2019-03-27T11:20:29.966Z,11.80
2019-03-27T11:23:06.637Z,7.57
2019-03-27T11:25:34.394Z,15.53
2019-03-27T11:28:02.164Z,11.60
2019-03-27T11:30:37.707Z,12.10
2019-03-27T11:33:05.844Z,10.60
2019-03-27T11:35:33.680Z,11.90
2019-03-27T11:38:01.434Z,14.97
2019-03-27T11:40:29.295Z,9.73
2019-03-27T11:42:57.357Z,9.40
2019-03-27T11:45:25.093Z,13.50
2019-03-27T11:47:52.842Z,9.20
2019-03-27T11:50:20.596Z,9.33
2019-03-27T11:52:48.483Z,15.10
2019-03-27T11:55:16.228Z,10.17
2019-03-27T11:57:43.977Z,9.30
2019-03-27T12:00:12.025Z,11.80
2019-03-27T12:02:39.768Z,16.83
2019-03-27T12:05:08.008Z,14.30
2019-03-27T12:07:35.856Z,16.10
2019-03-27T12:10:04.296Z,18.83
2019-03-27T12:12:32.045Z,14.30
2019-03-27T12:14:59.842Z,13.30
2019-03-27T12:17:27.793Z,17.23
2019-03-27T12:19:55.533Z,15.77
2019-03-27T12:22:23.400Z,12.73
2019-03-27T12:24:51.137Z,10.90
2019-03-27T12:27:18.989Z,13.17
2019-03-27T12:29:46.733Z,16.10
2019-03-27T12:32:14.476Z,15.23
2019-03-27T12:34:42.313Z,11.10
2019-03-27T12:37:10.076Z,17.83
2019-03-27T12:39:40.609Z,14.80
2019-03-27T12:42:07.448Z,11.73
2019-03-27T12:44:35.227Z,13.93
2019-03-27T12:47:03.133Z,14.50
2019-03-27T12:49:30.897Z,15.27
2019-03-27T12:51:58.647Z,21.77
2019-03-27T12:54:26.481Z,13.47
2019-03-27T12:56:54.128Z,18.17
2019-03-27T12:59:21.874Z,17.60
2019-03-27T13:01:49.638Z,12.27
2019-03-27T13:04:17.389Z,13.37
2019-03-27T13:06:45.144Z,12.70
2019-03-27T13:09:12.888Z,12.43
2019-03-27T13:11:40.633Z,17.90
2019-03-27T13:14:08.377Z,14.80
2019-03-27T13:16:36.209Z,12.00
2019-03-27T13:19:03.969Z,13.23
2019-03-27T13:21:31.717Z,10.10
2019-03-27T13:23:59.454Z,11.90
2019-03-27T13:26:27.202Z,12.30
2019-03-27T13:28:54.945Z,15.07
2019-03-27T13:31:22.701Z,11.20
2019-03-27T13:33:50.691Z,10.80
2019-03-27T13:36:18.673Z,12.80
2019-03-27T13:38:46.404Z,11.90
2019-03-27T13:41:14.663Z,13.03
2019-03-27T13:43:42.429Z,13.33
2019-03-27T13:46:10.188Z,13.07
2019-03-27T13:48:37.957Z,12.30
2019-03-27T13:51:05.801Z,11.00
2019-03-27T13:53:33.542Z,12.90
2019-03-27T13:56:01.365Z,14.50
2019-03-27T13:58:29.114Z,14.00
2019-03-27T14:00:56.879Z,10.10
2019-03-27T14:03:24.759Z,11.30
2019-03-27T14:05:52.602Z,12.77
2019-03-27T14:08:20.589Z,12.07
2019-03-27T14:10:48.356Z,9.67
2019-03-27T14:13:16.136Z,14.40
2019-03-27T14:15:43.936Z,9.23
2019-03-27T14:18:12.629Z,13.17
2019-03-27T14:20:40.599Z,9.60
2019-03-27T14:23:08.340Z,14.40
2019-03-27T14:25:36.253Z,11.67
2019-03-27T14:28:04.217Z,9.10
2019-03-27T14:30:52.074Z,7.27
2019-03-27T14:33:20.213Z,9.53
2019-03-27T14:35:48.092Z,9.80
2019-03-27T14:38:15.958Z,9.97
2019-03-27T14:40:43.736Z,11.30
2019-03-27T14:43:11.525Z,10.63
2019-03-27T14:45:39.268Z,7.90
2019-03-27T14:48:07.045Z,9.27
2019-03-27T14:50:34.787Z,10.50
2019-03-27T14:53:02.648Z,8.77
2019-03-27T14:55:30.418Z,12.03
2019-03-27T14:57:58.189Z,13.13
2019-03-27T15:00:25.937Z,11.33
2019-03-27T15:02:53.723Z,8.40
2019-03-27T15:05:21.565Z,8.80
2019-03-27T15:07:49.341Z,11.70
2019-03-27T15:10:17.210Z,9.50
2019-03-27T15:12:44.952Z,11.70
2019-03-27T15:15:14.845Z,10.90
2019-03-27T15:17:42.733Z,8.63
2019-03-27T15:20:11.759Z,12.93
2019-03-27T15:22:39.542Z,12.30
2019-03-27T15:25:07.496Z,8.80
2019-03-27T15:27:35.252Z,16.70
2019-03-27T15:30:03.808Z,13.50
2019-03-27T15:32:31.612Z,11.23
2019-03-27T15:34:59.345Z,11.23
2019-03-27T15:37:27.123Z,10.20
2019-03-27T15:39:54.977Z,11.73
2019-03-27T15:42:22.837Z,13.17
2019-03-27T15:44:50.577Z,21.13
2019-03-27T15:47:18.352Z,11.53
2019-03-27T15:49:46.129Z,14.23
2019-03-27T15:52:13.916Z,14.50
2019-03-27T15:54:41.708Z,10.37
2019-03-27T15:57:09.554Z,9.77
2019-03-27T15:59:37.362Z,10.90
2019-03-27T16:02:06.418Z,11.60
2019-03-27T16:04:34.202Z,10.83
2019-03-27T16:07:01.997Z,12.57
2019-03-27T16:09:29.797Z,13.50
2019-03-27T16:11:57.545Z,11.27
2019-03-27T16:14:25.401Z,14.50
2019-03-27T16:17:07.069Z,16.17
2019-03-27T16:19:22.919Z,13.30
2019-03-27T16:21:50.804Z,13.30
2019-03-27T16:24:18.575Z,14.87
2019-03-27T16:26:53.398Z,15.43
2019-03-27T16:29:16.016Z,11.93
2019-03-27T16:31:43.837Z,14.20
2019-03-27T16:34:11.628Z,12.47
2019-03-27T16:36:39.418Z,14.17
2019-03-27T16:39:07.270Z,13.60
2019-03-27T16:41:35.005Z,15.43
2019-03-27T16:44:02.881Z,15.40
2019-03-27T16:46:30.740Z,17.80
2019-03-27T16:48:58.537Z,18.07
2019-03-27T16:51:26.437Z,17.77
2019-03-27T16:53:54.189Z,16.10
2019-03-27T16:56:21.926Z,15.37
2019-03-27T16:58:49.692Z,12.80
2019-03-27T17:01:17.748Z,16.00
2019-03-27T17:03:45.485Z,15.87
2019-03-27T17:06:13.277Z,18.23
2019-03-27T17:08:41.020Z,15.10
2019-03-27T17:11:08.784Z,16.53
2019-03-27T17:13:36.521Z,11.93
2019-03-27T17:16:04.393Z,12.60
2019-03-27T17:18:32.118Z,14.17
2019-03-27T17:20:59.885Z,17.40
2019-03-27T17:23:28.600Z,16.50
2019-03-27T17:25:56.436Z,14.00
2019-03-27T17:28:24.333Z,16.57
2019-03-27T17:30:52.096Z,19.17
2019-03-27T17:33:20.264Z,15.03
2019-03-27T17:35:48.032Z,13.23
2019-03-27T17:38:15.785Z,12.50
2019-03-27T17:40:43.533Z,16.13
2019-03-27T17:43:11.272Z,13.20
2019-03-27T17:45:39.027Z,13.90
2019-03-27T17:48:06.764Z,14.90
2019-03-27T17:50:34.513Z,14.87
2019-03-27T17:53:02.285Z,15.73
2019-03-27T17:55:30.029Z,19.70
2019-03-27T17:57:57.780Z,36.23
2019-03-27T18:00:40.941Z,17.63
2019-03-27T18:03:08.708Z,18.20
2019-03-27T18:05:38.711Z,21.03
2019-03-27T18:08:06.224Z,19.93
2019-03-27T18:10:34.061Z,19.40
2019-03-27T18:13:01.821Z,17.73
2019-03-27T18:15:29.833Z,14.17
2019-03-27T18:17:57.609Z,17.10
2019-03-27T18:20:25.352Z,17.00
2019-03-27T18:22:53.101Z,16.03
2019-03-27T18:25:21.759Z,19.60
2019-03-27T18:27:49.528Z,15.30
2019-03-27T18:30:19.192Z,15.47
2019-03-27T18:32:46.929Z,12.47
2019-03-27T18:35:14.680Z,22.23
2019-03-27T18:37:42.420Z,13.80
2019-03-27T18:40:10.285Z,16.17
2019-03-27T18:42:38.045Z,17.10
2019-03-27T18:45:06.437Z,20.83
2019-03-27T18:47:34.170Z,17.27
2019-03-27T18:50:02.021Z,14.20
2019-03-27T18:52:29.762Z,13.10
2019-03-27T18:54:57.524Z,16.00
2019-03-27T18:57:25.280Z,23.60
2019-03-27T18:59:53.042Z,20.00
2019-03-27T19:02:20.782Z,16.93
2019-03-27T19:04:48.545Z,26.53
2019-03-27T19:07:16.292Z,23.77
2019-03-27T19:09:44.075Z,18.00
2019-03-27T19:12:11.824Z,14.03
2019-03-27T19:14:39.569Z,18.93
2019-03-27T19:17:07.303Z,34.20
2019-03-27T19:19:35.050Z,20.13
2019-03-27T19:22:02.989Z,23.73
2019-03-27T19:24:30.865Z,17.60
2019-03-27T19:26:58.620Z,15.43
2019-03-27T19:29:26.561Z,16.07
2019-03-27T19:31:54.329Z,14.90
2019-03-27T19:34:22.077Z,14.13
2019-03-27T19:36:49.917Z,18.87
2019-03-27T19:39:17.768Z,18.80
2019-03-27T19:41:45.544Z,17.00
2019-03-27T19:44:13.494Z,16.90
2019-03-27T19:46:41.333Z,43.33
2019-03-27T19:49:09.086Z,33.23
2019-03-27T19:51:36.836Z,25.60
2019-03-27T19:54:04.586Z,36.30
2019-03-27T19:56:32.344Z,37.53
2019-03-27T19:59:00.170Z,18.20
2019-03-27T20:01:27.950Z,19.10
2019-03-27T20:03:56.051Z,18.43
2019-03-27T20:06:24.277Z,17.10
2019-03-27T20:09:04.162Z,21.30
2019-03-27T20:11:32.232Z,22.33
2019-03-27T20:14:00.156Z,26.10
2019-03-27T20:16:28.028Z,18.80
2019-03-27T20:18:55.782Z,16.17
2019-03-27T20:21:23.542Z,17.13
2019-03-27T20:23:51.972Z,25.00
2019-03-27T20:26:19.748Z,17.30
2019-03-27T20:28:47.669Z,18.97
2019-03-27T20:31:15.436Z,24.87
2019-03-27T20:33:43.322Z,22.00
2019-03-27T20:36:13.171Z,20.17
2019-03-27T20:38:40.888Z,21.33
2019-03-27T20:41:08.742Z,23.40
2019-03-27T20:43:36.528Z,23.57
2019-03-27T20:46:04.396Z,24.03
2019-03-27T20:48:32.188Z,27.60
2019-03-27T20:50:59.926Z,24.47
2019-03-27T20:53:27.836Z,17.10
2019-03-27T20:55:55.586Z,18.20
2019-03-27T20:58:23.352Z,16.87
2019-03-27T21:00:51.108Z,18.50
2019-03-27T21:03:18.853Z,21.70
2019-03-27T21:05:46.814Z,20.90
2019-03-27T21:08:14.584Z,20.83
2019-03-27T21:10:42.485Z,18.93
2019-03-27T21:13:10.325Z,21.17
2019-03-27T21:15:38.946Z,21.50
2019-03-27T21:18:07.044Z,21.30
2019-03-27T21:20:34.777Z,22.73
2019-03-27T21:23:02.533Z,20.90
2019-03-27T21:25:30.336Z,22.00
2019-03-27T21:27:58.557Z,20.60
2019-03-27T21:30:26.441Z,21.03
2019-03-27T21:32:54.305Z,24.27
2019-03-27T21:35:22.323Z,22.23
2019-03-27T21:37:50.085Z,26.83
2019-03-27T21:40:17.935Z,21.47
2019-03-27T21:42:45.812Z,22.73
2019-03-27T21:45:14.210Z,21.77
2019-03-27T21:47:41.970Z,22.13
2019-03-27T21:50:09.800Z,28.17
2019-03-27T21:52:37.549Z,21.40
2019-03-27T21:55:06.495Z,22.40
2019-03-27T21:57:34.312Z,25.70
2019-03-27T22:00:02.370Z,26.43
2019-03-27T22:02:30.216Z,23.30
2019-03-27T22:04:58.064Z,31.00
2019-03-27T22:07:25.823Z,26.93
2019-03-27T22:09:53.582Z,25.63
2019-03-27T22:12:21.316Z,27.50
2019-03-27T22:14:49.069Z,27.70
2019-03-27T22:17:16.852Z,27.87
2019-03-27T22:19:44.596Z,22.60
2019-03-27T22:22:12.344Z,29.33
2019-03-27T22:24:40.100Z,27.50
2019-03-27T22:27:07.920Z,21.03
2019-03-27T22:29:35.664Z,24.27
2019-03-27T22:32:03.417Z,25.53
2019-03-27T22:34:31.209Z,28.17
2019-03-27T22:36:58.956Z,22.80
2019-03-27T22:39:26.741Z,23.10
2019-03-27T22:41:54.473Z,25.03
2019-03-27T22:44:22.248Z,24.93
2019-03-27T22:46:50.018Z,25.57
2019-03-27T22:49:17.757Z,27.50
2019-03-27T22:51:45.504Z,27.00
2019-03-27T22:54:13.271Z,24.27
2019-03-27T22:56:40.996Z,26.13
2019-03-27T22:59:08.821Z,25.73
2019-03-27T23:01:44.187Z,24.30
2019-03-27T23:04:12.160Z,25.73
2019-03-27T23:06:39.942Z,24.43
2019-03-27T23:09:08.082Z,26.33
2019-03-27T23:11:35.804Z,24.13
2019-03-27T23:14:03.557Z,27.30
2019-03-27T23:16:31.307Z,25.63
2019-03-27T23:18:59.064Z,24.57
2019-03-27T23:21:26.828Z,24.80
2019-03-27T23:23:54.591Z,24.73
2019-03-27T23:26:22.341Z,27.70
2019-03-27T23:28:50.094Z,24.33
2019-03-27T23:31:17.860Z,21.53
2019-03-27T23:33:46.509Z,21.70
2019-03-27T23:36:14.269Z,19.03
2019-03-27T23:38:42.068Z,20.50
2019-03-27T23:41:09.804Z,21.67
2019-03-27T23:43:37.617Z,27.47
2019-03-27T23:46:05.365Z,24.50
2019-03-27T23:48:33.140Z,22.23
2019-03-27T23:51:00.905Z,24.77
2019-03-27T23:53:28.654Z,24.40
2019-03-27T23:55:56.295Z,22.80
2019-03-27T23:58:24.140Z,22.53
